This is the latest recevied weather packets stored in our database for station/object OE-11213. If no packets are shown the sender has not sent any weather packets the latest 10 day(s).
| Time | Temp. | Humidity | Pressure | Rain* | Wind** | Luminosity | Snow |
|---|---|---|---|---|---|---|---|
| 1787618500 | 16.11° C | 90% | 1015.1 hPa | 0 mm | - | 0 W/m² | - |
| 1787618128 | 16.11° C | 89% | 1015.2 hPa | 0 mm | - | 0 W/m² | - |
| 1787617528 | 16.11° C | 91% | 1015.6 hPa | 0 mm | - | 0 W/m² | - |
| 1787616701 | 16.67° C | 88% | 1015.6 hPa | 0 mm | - | 0 W/m² | - |
| 1787616328 | 16.67° C | 86% | 1015.6 hPa | 0 mm | - | 0 W/m² | - |
| 1787615728 | 16.67° C | 89% | 1015.7 hPa | 0 mm | - | 0 W/m² | - |
| 1787614900 | 16.67° C | 88% | 1015.8 hPa | 0 mm | - | 0 W/m² | - |
| 1787614527 | 16.67° C | 86% | 1016.1 hPa | 0 mm | - | 0 W/m² | - |
| 1787613928 | 17.22° C | 86% | 1016.3 hPa | 0 mm | - | 0 W/m² | - |
| 1787613328 | 17.22° C | 85% | 1016.5 hPa | 0 mm | - | 0 W/m² | - |
| 1787612727 | 17.22° C | 85% | 1016.5 hPa | 0 mm | - | 0 W/m² | - |
| 1787612128 | 17.22° C | 85% | 1016.9 hPa | 0 mm | - | 0 W/m² | - |
| 1787611301 | 17.22° C | 87% | 1016.9 hPa | 0 mm | - | 0 W/m² | - |
| 1787610927 | 17.78° C | 83% | 1016.8 hPa | 0 mm | - | 0 W/m² | - |
| 1787610328 | 17.78° C | 80% | 1016.8 hPa | 0 mm | - | 0 W/m² | - |
| 1787609501 | 18.33° C | 80% | 1016.8 hPa | 0 mm | - | 0 W/m² | - |
| 1787609128 | 17.78° C | 82% | 1016.8 hPa | 0 mm | - | 0 W/m² | - |
| 1787607701 | 18.33° C | 80% | 1016.6 hPa | 0 mm | - | 0 W/m² | - |
| 1787607328 | 18.33° C | 79% | 1016.5 hPa | 0 mm | - | 0 W/m² | - |
| 1787606727 | 18.33° C | 80% | 1016.5 hPa | 0 mm | - | 0 W/m² | - |
| 1787605901 | 18.89° C | 76% | 1016.5 hPa | 0 mm | - | 0 W/m² | - |
| 1787605528 | 18.89° C | 75% | 1016.3 hPa | 0 mm | - | 0 W/m² | - |
| 1787604928 | 18.89° C | 76% | 1016.2 hPa | 0 mm | - | 0 W/m² | - |
| 1787604101 | 19.44° C | 75% | 1016.3 hPa | 0 mm | - | 0 W/m² | - |
| 1787603728 | 18.89° C | 79% | 1016.2 hPa | 0 mm | - | 0 W/m² | - |
* Rain latest hour (hover to see other rain measurements)
** Current wind speed in m/s (hover to see current wind gust speed)